Time;durP1;ratioP1;P1;durP2;ratioP2;P2;SDS_P1;SDS_P2;PMS_P1;PMS_P2;Temp;Humidity;BMP_temperature;BMP_pressure;BME280_temperature;BME280_humidity;BME280_pressure;Samples;Min_cycle;Max_cycle;Signal;HPM_P1;HPM_P2
2023/07/02 00:00:13;;;;;;;1999.90;999.90;;;22.70;82.70;;;;;;5051037;28;20563;-71
2023/07/02 00:02:40;;;;;;;1999.90;999.90;;;22.80;84.80;;;;;;5056709;28;20017;-70
2023/07/02 00:05:08;;;;;;;1999.90;999.90;;;23.10;82.90;;;;;;5050885;28;20051;-69
2023/07/02 00:07:37;;;;;;;1999.90;999.90;;;23.10;82.20;;;;;;5049951;28;20071;-70
2023/07/02 00:10:05;;;;;;;1999.90;999.90;;;23.20;82.70;;;;;;5059056;28;20048;-73
2023/07/02 00:12:32;;;;;;;1999.90;999.90;;;23.40;82.80;;;;;;5056609;28;20017;-71
2023/07/02 00:15:00;;;;;;;1999.90;999.90;;;23.50;81.60;;;;;;5060107;28;20036;-72
2023/07/02 00:17:27;;;;;;;1999.90;999.90;;;23.70;81.00;;;;;;5049989;28;20032;-72
2023/07/02 00:19:55;;;;;;;1999.90;999.90;;;23.80;81.10;;;;;;5057464;28;20025;-70
2023/07/02 00:22:22;;;;;;;1999.90;999.90;;;24.00;80.50;;;;;;5059374;28;20099;-71
2023/07/02 00:24:51;;;;;;;1999.90;999.90;;;23.90;80.70;;;;;;5058558;28;20079;-71
2023/07/02 00:27:18;;;;;;;1999.90;999.90;;;24.20;80.40;;;;;;5056426;28;20293;-71
2023/07/02 00:29:46;;;;;;;1999.90;999.90;;;24.50;80.00;;;;;;5052544;28;20017;-72
2023/07/02 00:32:13;;;;;;;1999.90;999.90;;;24.70;80.20;;;;;;5051982;28;20483;-69
2023/07/02 00:34:40;;;;;;;1999.90;999.90;;;25.00;80.10;;;;;;5053388;28;20640;-71
2023/07/02 00:37:07;;;;;;;1999.90;999.90;;;25.00;78.60;;;;;;5054354;28;20028;-70
2023/07/02 00:39:35;;;;;;;1999.90;999.90;;;25.20;78.60;;;;;;5051199;28;20032;-70
2023/07/02 00:42:05;;;;;;;1999.90;999.90;;;25.60;78.20;;;;;;5052614;28;20021;-68
2023/07/02 00:44:33;;;;;;;1999.90;999.90;;;25.80;78.40;;;;;;5059862;28;20028;-70
2023/07/02 00:47:01;;;;;;;1999.90;999.90;;;26.20;77.50;;;;;;5046701;28;20506;-71
2023/07/02 00:49:28;;;;;;;1999.90;999.90;;;26.40;77.10;;;;;;5046911;28;20356;-70
2023/07/02 00:51:56;;;;;;;1999.90;999.90;;;26.50;75.60;;;;;;5061148;28;20429;-70
2023/07/02 00:54:24;;;;;;;1999.90;999.90;;;26.20;78.00;;;;;;5065018;28;20472;-68
2023/07/02 00:56:51;;;;;;;1999.90;999.90;;;26.40;76.00;;;;;;5053870;28;20459;-71
2023/07/02 00:59:19;;;;;;;1999.90;999.90;;;26.50;76.80;;;;;;5052235;28;20084;-70
2023/07/02 01:01:49;;;;;;;1999.90;999.90;;;26.80;76.60;;;;;;5049512;28;20040;-70
2023/07/02 01:04:20;;;;;;;1999.90;999.90;;;27.10;76.40;;;;;;5052241;28;20587;-69
2023/07/02 01:06:47;;;;;;;1999.90;999.90;;;27.20;76.00;;;;;;5049801;28;20045;-71
2023/07/02 01:09:15;;;;;;;1999.90;999.90;;;27.50;75.60;;;;;;5050713;28;20025;-69
2023/07/02 01:11:52;;;;;;;1999.90;999.90;;;27.70;75.50;;;;;;5045102;28;20032;-70
2023/07/02 01:14:23;;;;;;;1999.90;999.90;;;27.70;75.70;;;;;;5051285;28;20039;-70
2023/07/02 01:16:52;;;;;;;1999.90;999.90;;;28.10;75.50;;;;;;5048031;28;20032;-69
2023/07/02 01:19:44;;;;;;;1999.90;999.90;;;28.10;74.80;;;;;;5050165;28;20017;-70
2023/07/02 01:22:13;;;;;;;1999.90;999.90;;;28.30;74.90;;;;;;5050229;28;20067;-71
2023/07/02 01:24:41;;;;;;;1999.90;999.90;;;28.40;73.90;;;;;;5062882;28;20042;-70
2023/07/02 01:27:10;;;;;;;1999.90;999.90;;;28.50;73.30;;;;;;5059049;28;20029;-70
2023/07/02 01:29:37;;;;;;;1999.90;999.90;;;28.20;74.00;;;;;;5051505;28;20381;-68
2023/07/02 01:32:06;;;;;;;1999.90;999.90;;;28.30;73.50;;;;;;5052758;28;20090;-70
2023/07/02 01:34:34;;;;;;;1999.90;999.90;;;28.20;73.90;;;;;;5055424;28;20144;-68
2023/07/02 01:37:02;;;;;;;1999.90;999.90;;;28.20;73.40;;;;;;5049444;28;20025;-71
2023/07/02 01:39:30;;;;;;;1999.90;999.90;;;28.20;74.00;;;;;;5051649;28;20472;-69
2023/07/02 01:42:11;;;;;;;1999.90;999.90;;;28.40;73.60;;;;;;5047281;28;20033;-69
2023/07/02 01:44:39;;;;;;;1999.90;999.90;;;28.50;73.50;;;;;;5053842;28;20052;-72
2023/07/02 01:47:07;;;;;;;1999.90;999.90;;;28.60;74.00;;;;;;5060262;28;20476;-71
2023/07/02 01:49:36;;;;;;;1999.90;999.90;;;28.90;73.40;;;;;;5056155;28;20397;-71
2023/07/02 01:52:06;;;;;;;1999.90;999.90;;;28.70;73.10;;;;;;5060426;28;20021;-71
2023/07/02 01:54:34;;;;;;;1999.90;999.90;;;28.80;72.60;;;;;;5060998;28;20031;-70
2023/07/02 01:57:02;;;;;;;1999.90;999.90;;;28.90;73.10;;;;;;5055391;28;20369;-72
2023/07/02 01:59:29;;;;;;;1999.90;999.90;;;29.10;71.90;;;;;;5061536;28;20033;-70
2023/07/02 02:01:56;;;;;;;1999.90;999.90;;;29.20;72.00;;;;;;5047685;28;20052;-73
2023/07/02 02:04:24;;;;;;;1999.90;999.90;;;28.80;72.40;;;;;;5059839;28;20079;-73
2023/07/02 02:06:52;;;;;;;1999.90;999.90;;;28.80;72.40;;;;;;5059578;28;20064;-73
2023/07/02 02:09:19;;;;;;;1999.90;999.90;;;28.90;72.50;;;;;;5057622;28;20715;-71
2023/07/02 02:11:50;;;;;;;1999.90;999.90;;;29.10;72.20;;;;;;5057185;28;20044;-72
2023/07/02 02:14:17;;;;;;;1999.90;999.90;;;29.10;72.90;;;;;;5059680;28;20029;-72
2023/07/02 02:16:45;;;;;;;1999.90;999.90;;;29.10;71.90;;;;;;5054697;28;20087;-74
2023/07/02 02:19:14;;;;;;;1999.90;999.90;;;29.00;73.00;;;;;;5055734;28;20013;-71
2023/07/02 02:21:44;;;;;;;1999.90;999.90;;;28.90;72.40;;;;;;5054361;28;20037;-73
2023/07/02 02:24:12;;;;;;;1999.90;999.90;;;28.50;73.20;;;;;;5062503;28;20100;-74
2023/07/02 02:26:39;;;;;;;1999.90;999.90;;;28.50;72.80;;;;;;5061515;28;20040;-73
2023/07/02 02:29:06;;;;;;;1999.90;999.90;;;28.60;72.70;;;;;;5055325;28;20021;-70
2023/07/02 02:31:34;;;;;;;1999.90;999.90;;;28.50;72.80;;;;;;5055808;28;20098;-72
2023/07/02 02:34:01;;;;;;;1999.90;999.90;;;28.40;73.00;;;;;;5058454;28;20055;-70
2023/07/02 02:36:28;;;;;;;1999.90;999.90;;;28.40;73.00;;;;;;5049628;28;20086;-73
2023/07/02 02:38:56;;;;;;;1999.90;999.90;;;28.40;73.00;;;;;;5057341;28;20108;-70
2023/07/02 02:41:23;;;;;;;1999.90;999.90;;;28.30;72.90;;;;;;5054135;28;20029;-71
2023/07/02 02:43:50;;;;;;;1999.90;999.90;;;28.00;73.00;;;;;;5051953;28;20074;-71
2023/07/02 02:46:24;;;;;;;1999.90;999.90;;;28.00;73.00;;;;;;5053325;28;20043;-70
2023/07/02 02:48:52;;;;;;;1999.90;999.90;;;27.80;72.70;;;;;;5054767;28;20044;-71
2023/07/02 02:51:19;;;;;;;1999.90;999.90;;;27.50;72.50;;;;;;5049044;28;20120;-72
2023/07/02 02:53:47;;;;;;;1999.90;999.90;;;27.20;72.70;;;;;;5061271;28;20017;-71
2023/07/02 02:56:14;;;;;;;1999.90;999.90;;;26.90;72.70;;;;;;5044349;28;20101;-73
2023/07/02 02:58:41;;;;;;;1999.90;999.90;;;26.60;73.50;;;;;;5050276;28;20428;-72
2023/07/02 03:01:11;;;;;;;1999.90;999.90;;;26.10;74.20;;;;;;5047402;28;20021;-72
2023/07/02 03:03:47;;;;;;;1999.90;999.90;;;25.70;73.90;;;;;;5057339;28;20025;-71
2023/07/02 03:06:15;;;;;;;1999.90;999.90;;;25.40;75.00;;;;;;5054393;28;20411;-73
2023/07/02 03:08:42;;;;;;;1999.90;999.90;;;25.20;74.90;;;;;;5057435;28;20223;-70
2023/07/02 03:11:10;;;;;;;1999.90;999.90;;;25.00;75.00;;;;;;5054536;28;20032;-72
2023/07/02 03:13:37;;;;;;;1999.90;999.90;;;24.90;74.80;;;;;;5054324;28;20048;-74
2023/07/02 03:16:05;;;;;;;1999.90;999.90;;;24.70;75.50;;;;;;5052405;28;20044;-72
2023/07/02 03:18:32;;;;;;;1999.90;999.90;;;24.60;75.40;;;;;;5052928;28;20025;-73
2023/07/02 03:21:00;;;;;;;1999.90;999.90;;;24.40;75.40;;;;;;5052723;28;20081;-71
2023/07/02 03:23:27;;;;;;;1999.90;999.90;;;24.10;75.80;;;;;;5057385;28;20495;-71
2023/07/02 03:25:55;;;;;;;1999.90;999.90;;;23.80;75.90;;;;;;5059383;28;20124;-72
2023/07/02 03:28:22;;;;;;;1999.90;999.90;;;23.50;76.30;;;;;;5053727;28;20021;-72
2023/07/02 03:30:49;;;;;;;1999.90;999.90;;;23.20;76.50;;;;;;5049474;28;20063;-71
2023/07/02 03:33:17;;;;;;;1999.90;999.90;;;22.80;76.80;;;;;;5057934;28;20025;-71
2023/07/02 03:35:44;;;;;;;1999.90;999.90;;;22.30;77.10;;;;;;5054375;28;20037;-71
2023/07/02 03:38:11;;;;;;;1999.90;999.90;;;21.90;77.70;;;;;;5056764;28;20797;-73
2023/07/02 03:40:39;;;;;;;1999.90;999.90;;;21.40;77.40;;;;;;5055623;28;20020;-71
2023/07/02 03:43:06;;;;;;;1999.90;999.90;;;21.00;78.70;;;;;;5055377;28;20029;-71
2023/07/02 03:45:33;;;;;;;1999.90;999.90;;;20.60;79.20;;;;;;5052101;28;20044;-70
2023/07/02 03:48:01;;;;;;;1999.90;999.90;;;20.30;80.20;;;;;;5055156;28;20357;-71
2023/07/02 03:50:28;;;;;;;1999.90;999.90;;;20.10;81.30;;;;;;5054118;28;20100;-71
2023/07/02 03:52:55;;;;;;;1999.90;999.90;;;19.90;81.20;;;;;;5054144;28;20078;-71
2023/07/02 03:55:23;;;;;;;1999.90;999.90;;;19.70;81.10;;;;;;5055593;28;20063;-71
2023/07/02 03:57:50;;;;;;;1999.90;999.90;;;19.50;82.10;;;;;;5046356;28;20068;-71
2023/07/02 04:00:18;;;;;;;1999.90;999.90;;;19.40;82.40;;;;;;5055507;28;20022;-72
2023/07/02 04:02:45;;;;;;;1999.90;999.90;;;19.30;82.90;;;;;;5048545;28;20063;-71
2023/07/02 04:05:13;;;;;;;1999.90;999.90;;;19.10;83.70;;;;;;5054960;28;20108;-73
2023/07/02 04:07:40;;;;;;;1999.90;999.90;;;19.00;83.30;;;;;;5062259;28;20052;-70
2023/07/02 04:10:08;;;;;;;1999.90;999.90;;;18.90;83.20;;;;;;5051573;28;20025;-71
2023/07/02 04:12:35;;;;;;;1999.90;999.90;;;18.90;83.00;;;;;;5055483;28;20028;-71
2023/07/02 04:15:03;;;;;;;1999.90;999.90;;;19.10;86.50;;;;;;5053781;28;20036;-73
2023/07/02 04:17:30;;;;;;;1999.90;999.90;;;19.40;84.60;;;;;;5050960;28;20037;-70
2023/07/02 04:20:00;;;;;;;1999.90;999.90;;;19.60;85.00;;;;;;5052422;28;20024;-72
2023/07/02 04:22:27;;;;;;;1999.90;999.90;;;20.00;86.80;;;;;;5050730;28;20429;-71
2023/07/02 04:24:54;;;;;;;1999.90;999.90;;;20.50;83.70;;;;;;5051414;28;20087;-71
2023/07/02 04:27:22;;;;;;;1999.90;999.90;;;20.90;85.00;;;;;;5052505;28;20043;-71
2023/07/02 04:29:49;;;;;;;1999.90;999.90;;;21.20;83.20;;;;;;5048058;28;20033;-70
2023/07/02 04:32:17;;;;;;;1999.90;999.90;;;21.60;82.90;;;;;;5049453;28;20080;-71
2023/07/02 04:34:44;;;;;;;1999.90;999.90;;;22.00;84.10;;;;;;5053478;28;20041;-71
2023/07/02 04:37:11;;;;;;;1999.90;999.90;;;22.20;80.80;;;;;;5056146;28;20170;-71
2023/07/02 04:39:40;;;;;;;1999.90;999.90;;;21.80;77.70;;;;;;5050840;28;20529;-71
2023/07/02 04:42:09;;;;;;;1999.90;999.90;;;21.40;78.70;;;;;;5049830;28;20036;-72
2023/07/02 04:44:37;;;;;;;1999.90;999.90;;;21.00;79.00;;;;;;5050096;28;20178;-71
2023/07/02 04:47:04;;;;;;;1999.90;999.90;;;20.60;79.70;;;;;;5049947;28;20040;-71
2023/07/02 04:49:32;;;;;;;1999.90;999.90;;;20.20;80.20;;;;;;5051883;28;20029;-72
2023/07/02 04:51:59;;;;;;;1999.90;999.90;;;19.80;80.70;;;;;;5052592;28;20093;-73
2023/07/02 04:54:27;;;;;;;1999.90;999.90;;;19.50;80.90;;;;;;5056408;28;20031;-71
2023/07/02 04:56:54;;;;;;;1999.90;999.90;;;19.20;81.70;;;;;;5057810;28;20399;-74
2023/07/02 04:59:22;;;;;;;1999.90;999.90;;;19.00;82.50;;;;;;5055121;28;20108;-71
2023/07/02 05:01:50;;;;;;;1999.90;999.90;;;18.90;82.70;;;;;;5050646;28;20032;-71
2023/07/02 05:04:17;;;;;;;1999.90;999.90;;;18.70;82.60;;;;;;5054389;28;20472;-72
2023/07/02 05:06:44;;;;;;;1999.90;999.90;;;18.60;82.90;;;;;;5047005;28;20057;-71
2023/07/02 05:09:12;;;;;;;1999.90;999.90;;;18.40;83.00;;;;;;5061728;28;20025;-71
2023/07/02 05:11:39;;;;;;;1999.90;999.90;;;18.30;83.00;;;;;;5054885;28;20028;-72
2023/07/02 05:14:06;;;;;;;1999.90;999.90;;;18.10;82.50;;;;;;5058222;28;20021;-72
2023/07/02 05:16:34;;;;;;;1999.90;999.90;;;18.00;83.60;;;;;;5051788;28;20119;-72
2023/07/02 05:19:01;;;;;;;1999.90;999.90;;;17.80;83.70;;;;;;5050870;28;20091;-72
2023/07/02 05:21:28;;;;;;;1999.90;999.90;;;17.70;84.20;;;;;;5049714;28;20021;-72
2023/07/02 05:23:56;;;;;;;1999.90;999.90;;;17.60;84.40;;;;;;5059555;28;20032;-70
2023/07/02 05:26:23;;;;;;;1999.90;999.90;;;17.60;85.00;;;;;;5055312;28;20040;-73
2023/07/02 05:28:50;;;;;;;1999.90;999.90;;;17.50;85.40;;;;;;5059261;28;20128;-71
2023/07/02 05:31:17;;;;;;;1999.90;999.90;;;17.40;85.80;;;;;;5059721;28;20024;-72
2023/07/02 05:33:45;;;;;;;1999.90;999.90;;;17.40;86.30;;;;;;5056510;28;20067;-71
2023/07/02 05:36:12;;;;;;;1999.90;999.90;;;17.30;86.30;;;;;;5047131;28;20037;-73
2023/07/02 05:38:40;;;;;;;1999.90;999.90;;;17.30;86.60;;;;;;5055885;28;20028;-70
2023/07/02 05:41:07;;;;;;;1999.90;999.90;;;17.20;86.20;;;;;;5052605;28;20104;-71
2023/07/02 05:43:34;;;;;;;1999.90;999.90;;;17.20;86.70;;;;;;5056268;28;20140;-72
2023/07/02 05:46:01;;;;;;;1999.90;999.90;;;17.10;86.40;;;;;;5054243;28;20128;-72
2023/07/02 05:48:29;;;;;;;1999.90;999.90;;;17.10;86.80;;;;;;5053171;28;20108;-70
2023/07/02 05:50:56;;;;;;;1999.90;999.90;;;17.20;86.90;;;;;;5048427;28;20112;-71
2023/07/02 05:53:24;;;;;;;1999.90;999.90;;;17.10;87.40;;;;;;5051591;28;20025;-72
2023/07/02 05:55:51;;;;;;;1999.90;999.90;;;17.00;86.80;;;;;;5052087;28;20091;-71
2023/07/02 05:58:19;;;;;;;1999.90;999.90;;;17.00;86.20;;;;;;5053007;28;20032;-71
2023/07/02 06:00:49;;;;;;;1999.90;999.90;;;17.00;86.50;;;;;;5050872;28;20024;-73
2023/07/02 06:03:20;;;;;;;1999.90;999.90;;;16.90;87.10;;;;;;5060417;28;20029;-71
2023/07/02 06:05:51;;;;;;;1999.90;999.90;;;17.00;87.40;;;;;;5050890;28;20044;-71
2023/07/02 06:08:19;;;;;;;1999.90;999.90;;;17.00;87.40;;;;;;5050585;28;20449;-71
2023/07/02 06:10:47;;;;;;;1999.90;999.90;;;17.00;87.90;;;;;;5055868;28;20052;-72
2023/07/02 06:13:15;;;;;;;1999.90;999.90;;;17.10;88.70;;;;;;5058183;28;20025;-72
2023/07/02 06:15:43;;;;;;;1999.90;999.90;;;17.20;87.70;;;;;;5050960;28;20165;-73
2023/07/02 06:18:10;;;;;;;1999.90;999.90;;;17.20;87.50;;;;;;5045871;28;20086;-72
2023/07/02 06:20:37;;;;;;;1999.90;999.90;;;17.10;87.60;;;;;;5046508;28;20047;-71
2023/07/02 06:23:05;;;;;;;1999.90;999.90;;;17.10;87.70;;;;;;5052296;28;20357;-70
2023/07/02 06:25:32;;;;;;;1999.90;999.90;;;17.10;87.70;;;;;;5041168;28;20148;-72
2023/07/02 06:28:00;;;;;;;1999.90;999.90;;;17.00;87.10;;;;;;5048737;28;20167;-72
2023/07/02 06:30:28;;;;;;;1999.90;999.90;;;16.80;88.40;;;;;;5050081;28;20032;-71
2023/07/02 06:32:56;;;;;;;1999.90;999.90;;;16.80;88.20;;;;;;5051728;28;20028;-71
2023/07/02 06:35:23;;;;;;;1999.90;999.90;;;16.70;90.20;;;;;;5050586;28;20491;-71
2023/07/02 06:37:50;;;;;;;1999.90;999.90;;;16.60;91.30;;;;;;5049864;28;20025;-71
2023/07/02 06:40:18;;;;;;;1999.90;999.90;;;16.50;92.10;;;;;;5048420;28;20166;-72
2023/07/02 06:42:45;;;;;;;1999.90;999.90;;;16.40;92.80;;;;;;5056395;28;20039;-72
2023/07/02 06:45:12;;;;;;;1999.90;999.90;;;16.30;93.10;;;;;;5056460;28;20040;-70
2023/07/02 06:47:40;;;;;;;1999.90;999.90;;;16.10;93.40;;;;;;5058854;28;20120;-72
2023/07/02 06:50:07;;;;;;;1999.90;999.90;;;15.90;93.80;;;;;;5047163;28;20037;-71
2023/07/02 06:52:34;;;;;;;1999.90;999.90;;;15.80;94.20;;;;;;5055476;28;20033;-71
2023/07/02 06:55:02;;;;;;;1999.90;999.90;;;15.70;94.60;;;;;;5056239;28;20424;-71
2023/07/02 06:57:29;;;;;;;1999.90;999.90;;;15.60;94.90;;;;;;5053878;28;20131;-71
2023/07/02 07:00:03;;;;;;;1999.90;999.90;;;15.40;95.30;;;;;;5052024;28;20061;-72
2023/07/02 07:02:30;;;;;;;1999.90;999.90;;;15.30;95.60;;;;;;5058035;28;20017;-72
2023/07/02 07:04:58;;;;;;;1999.90;999.90;;;15.20;96.20;;;;;;5052732;28;20039;-72
2023/07/02 07:07:25;;;;;;;1999.90;999.90;;;15.00;96.60;;;;;;5054130;28;20084;-70
2023/07/02 07:09:53;;;;;;;1999.90;999.90;;;14.90;96.80;;;;;;5052574;28;20418;-72
2023/07/02 07:12:20;;;;;;;1999.90;999.90;;;14.80;97.10;;;;;;5056194;28;20032;-71
2023/07/02 07:14:48;;;;;;;1999.90;999.90;;;14.70;97.30;;;;;;5050649;28;20018;-72
2023/07/02 07:17:15;;;;;;;1999.90;999.90;;;14.60;97.80;;;;;;5056583;28;20020;-74
2023/07/02 07:19:42;;;;;;;1999.90;999.90;;;14.50;98.10;;;;;;5051757;28;20079;-73
2023/07/02 07:22:09;;;;;;;1999.90;999.90;;;14.50;98.50;;;;;;5062079;28;20025;-72
2023/07/02 07:24:38;;;;;;;1999.90;999.90;;;14.40;98.70;;;;;;5053413;28;20044;-72
2023/07/02 07:27:06;;;;;;;1999.90;999.90;;;14.30;99.00;;;;;;5051650;28;20033;-72
2023/07/02 07:29:33;;;;;;;1999.90;999.90;;;14.20;99.30;;;;;;5055244;28;20021;-72
2023/07/02 07:32:00;;;;;;;1999.90;999.90;;;14.10;99.60;;;;;;5057309;28;20029;-74
2023/07/02 07:34:27;;;;;;;1999.90;999.90;;;14.00;99.90;;;;;;5057714;28;20480;-74
2023/07/02 07:36:55;;;;;;;1999.90;999.90;;;13.90;99.90;;;;;;5049969;28;20361;-73
2023/07/02 07:39:22;;;;;;;1999.90;999.90;;;13.80;99.90;;;;;;5054097;28;20079;-74
2023/07/02 07:41:49;;;;;;;1999.90;999.90;;;13.70;99.90;;;;;;5060110;28;20029;-72
2023/07/02 07:44:17;;;;;;;1999.90;999.90;;;13.60;99.90;;;;;;5056777;28;20036;-73
2023/07/02 07:46:44;;;;;;;1999.90;999.90;;;13.50;99.90;;;;;;5046528;28;20041;-73
2023/07/02 07:49:13;;;;;;;1999.90;999.90;;;13.40;99.90;;;;;;5059288;28;20445;-72
2023/07/02 07:51:41;;;;;;;1999.90;999.90;;;13.30;99.90;;;;;;5059314;28;20028;-71
2023/07/02 07:54:08;;;;;;;1999.90;999.90;;;13.20;99.90;;;;;;5060191;28;20052;-72
2023/07/02 07:56:35;;;;;;;1999.90;999.90;;;13.10;99.90;;;;;;5051279;28;20108;-72
2023/07/02 07:59:02;;;;;;;1999.90;999.90;;;13.10;99.90;;;;;;5061794;28;20061;-72
2023/07/02 08:01:30;;;;;;;1999.90;999.90;;;13.00;99.90;;;;;;5051987;28;20438;-71
2023/07/02 08:03:57;;;;;;;1999.90;999.90;;;12.90;99.90;;;;;;5050543;28;20026;-71
2023/07/02 08:06:25;;;;;;;1999.90;999.90;;;12.90;99.90;;;;;;5056323;28;20057;-73
2023/07/02 08:08:52;;;;;;;1999.90;999.90;;;12.80;99.90;;;;;;5055095;28;20419;-72
2023/07/02 08:11:19;;;;;;;1999.90;999.90;;;12.70;99.90;;;;;;5054393;28;20039;-73
2023/07/02 08:13:46;;;;;;;1999.90;999.90;;;12.70;99.90;;;;;;5055391;28;20033;-73
2023/07/02 08:16:14;;;;;;;1999.90;999.90;;;12.70;99.90;;;;;;5044824;28;20044;-72
2023/07/02 08:18:41;;;;;;;1999.90;999.90;;;12.60;99.90;;;;;;5045353;28;20542;-72
2023/07/02 08:21:08;;;;;;;1999.90;999.90;;;12.60;99.90;;;;;;5044462;28;20064;-72
2023/07/02 08:23:36;;;;;;;1999.90;999.90;;;12.50;99.90;;;;;;5048211;28;20028;-71
2023/07/02 08:26:03;;;;;;;1999.90;999.90;;;12.40;99.90;;;;;;5045760;28;20048;-73
2023/07/02 08:28:31;;;;;;;1999.90;999.90;;;12.30;99.90;;;;;;5046724;28;20044;-72
2023/07/02 08:30:59;;;;;;;1999.90;999.90;;;12.20;99.90;;;;;;5052101;28;20103;-72
2023/07/02 08:33:26;;;;;;;1999.90;999.90;;;12.20;99.90;;;;;;5048170;28;20028;-70
2023/07/02 08:35:53;;;;;;;1999.90;999.90;;;12.20;99.90;;;;;;5057064;28;20025;-71
2023/07/02 08:38:21;;;;;;;1999.90;999.90;;;12.20;99.90;;;;;;5058622;28;20024;-72
2023/07/02 08:40:50;;;;;;;1999.90;999.90;;;12.10;99.90;;;;;;5050190;28;20436;-72
2023/07/02 08:43:17;;;;;;;1999.90;999.90;;;12.10;99.90;;;;;;5051447;28;20055;-70
2023/07/02 08:45:45;;;;;;;1999.90;999.90;;;12.00;99.90;;;;;;5040972;28;20041;-71
2023/07/02 08:48:13;;;;;;;1999.90;999.90;;;12.00;99.90;;;;;;5063021;28;20488;-71
2023/07/02 08:50:40;;;;;;;1999.90;999.90;;;12.00;99.90;;;;;;5054591;28;20025;-71
2023/07/02 08:53:07;;;;;;;1999.90;999.90;;;11.90;99.90;;;;;;5058667;28;20512;-72
2023/07/02 08:55:34;;;;;;;1999.90;999.90;;;11.80;99.90;;;;;;5050463;28;20032;-70
2023/07/02 08:58:02;;;;;;;1999.90;999.90;;;11.80;99.90;;;;;;5057240;28;20021;-71
2023/07/02 09:00:34;;;;;;;1999.90;999.90;;;11.70;99.90;;;;;;5055835;28;21712;-73
2023/07/02 09:03:17;;;;;;;1999.90;999.90;;;11.70;99.90;;;;;;5055995;28;20036;-73
2023/07/02 09:05:54;;;;;;;1999.90;999.90;;;11.70;99.90;;;;;;5053264;28;20491;-72
2023/07/02 09:08:25;;;;;;;1999.90;999.90;;;11.60;99.90;;;;;;5060258;28;20490;-71
2023/07/02 09:10:52;;;;;;;1999.90;999.90;;;11.60;99.90;;;;;;5054854;28;20029;-72
2023/07/02 09:13:20;;;;;;;1999.90;999.90;;;11.60;99.90;;;;;;5060008;28;20079;-72
2023/07/02 09:15:47;;;;;;;1999.90;999.90;;;11.60;99.90;;;;;;5049470;28;21490;-70
2023/07/02 09:18:24;;;;;;;1999.90;999.90;;;11.50;99.90;;;;;;5057217;28;20369;-72
2023/07/02 09:20:56;;;;;;;1999.90;999.90;;;11.50;99.90;;;;;;5050296;28;20036;-73
2023/07/02 09:23:23;;;;;;;1999.90;999.90;;;11.50;99.90;;;;;;5053080;28;20052;-70
2023/07/02 09:25:50;;;;;;;1999.90;999.90;;;11.50;99.90;;;;;;5055758;28;20036;-72
2023/07/02 09:28:23;;;;;;;1999.90;999.90;;;11.50;99.90;;;;;;5062440;28;20719;-72
2023/07/02 09:30:59;;;;;;;1999.90;999.90;;;11.50;99.90;;;;;;5055775;28;20112;-72
2023/07/02 09:33:30;;;;;;;1999.90;999.90;;;11.40;99.90;;;;;;5050148;28;20080;-73
2023/07/02 09:35:57;;;;;;;1999.90;999.90;;;11.40;99.90;;;;;;5052755;28;20515;-72
2023/07/02 09:38:25;;;;;;;1999.90;999.90;;;11.30;99.90;;;;;;5049074;28;20047;-71
2023/07/02 09:40:53;;;;;;;1999.90;999.90;;;11.30;99.90;;;;;;5046726;28;20021;-72
2023/07/02 09:43:21;;;;;;;1999.90;999.90;;;11.20;99.90;;;;;;5050613;28;20488;-72
2023/07/02 09:45:50;;;;;;;1999.90;999.90;;;11.20;99.90;;;;;;5049740;28;20044;-71
2023/07/02 09:48:19;;;;;;;1999.90;999.90;;;11.10;99.90;;;;;;5050689;28;20472;-71
2023/07/02 09:50:49;;;;;;;1999.90;999.90;;;11.10;99.90;;;;;;5059026;28;20874;-70
2023/07/02 09:53:17;;;;;;;1999.90;999.90;;;11.00;99.90;;;;;;5056087;28;20033;-71
2023/07/02 09:55:45;;;;;;;1999.90;999.90;;;10.90;99.90;;;;;;5050708;28;20037;-70
2023/07/02 09:58:12;;;;;;;1999.90;999.90;;;10.90;99.90;;;;;;5044346;28;20377;-74
2023/07/02 10:00:42;;;;;;;1999.90;999.90;;;10.80;99.90;;;;;;5046827;28;20025;-73
2023/07/02 10:03:09;;;;;;;1999.90;999.90;;;10.70;99.90;;;;;;5051112;28;20025;-73
2023/07/02 10:05:36;;;;;;;1999.90;999.90;;;10.70;99.90;;;;;;5060529;28;20037;-72
2023/07/02 10:08:17;;;;;;;1999.90;999.90;;;10.60;99.90;;;;;;5054420;28;20048;-73
2023/07/02 10:10:45;;;;;;;1999.90;999.90;;;10.60;99.90;;;;;;5058082;28;20037;-74
2023/07/02 10:13:12;;;;;;;1999.90;999.90;;;10.60;99.90;;;;;;5055932;28;20480;-72
2023/07/02 10:15:40;;;;;;;1999.90;999.90;;;10.60;99.90;;;;;;5055740;28;20035;-74
2023/07/02 10:18:08;;;;;;;1999.90;999.90;;;10.60;99.90;;;;;;5063686;28;20035;-73
2023/07/02 10:20:39;;;;;;;1999.90;999.90;;;10.60;99.90;;;;;;5064008;28;20089;-72
2023/07/02 10:23:10;;;;;;;1999.90;999.90;;;10.50;99.90;;;;;;5058286;28;20218;-73
2023/07/02 10:25:39;;;;;;;1999.90;999.90;;;10.50;99.90;;;;;;5053737;28;20578;-73
2023/07/02 10:28:22;;;;;;;1999.90;999.90;;;10.50;99.90;;;;;;5061078;28;20483;-71
2023/07/02 10:30:49;;;;;;;1999.90;999.90;;;10.50;99.90;;;;;;5053929;28;20033;-72
2023/07/02 10:33:18;;;;;;;1999.90;999.90;;;10.50;99.90;;;;;;5066917;28;20029;-73
2023/07/02 10:35:49;;;;;;;1999.90;999.90;;;10.40;99.90;;;;;;5055433;28;20123;-72
2023/07/02 10:38:24;;;;;;;1999.90;999.90;;;10.30;99.90;;;;;;5062687;28;20129;-71
2023/07/02 10:41:00;;;;;;;1999.90;999.90;;;10.30;99.90;;;;;;5056045;28;20111;-72
2023/07/02 10:43:28;;;;;;;;;;;10.30;99.90;;;;;;5060049;28;20084;-73
2023/07/02 10:45:55;;;;;;;1999.90;999.90;;;10.20;99.90;;;;;;5059524;28;19927;-73
2023/07/02 10:48:23;;;;;;;1999.90;999.90;;;10.20;99.90;;;;;;5061701;28;20032;-74
2023/07/02 10:50:50;;;;;;;1999.90;999.90;;;10.10;99.90;;;;;;5059829;28;20071;-72
2023/07/02 10:53:19;;;;;;;1999.90;999.90;;;10.10;99.90;;;;;;5062359;28;20028;-72
2023/07/02 10:55:54;;;;;;;1999.90;999.90;;;10.10;99.90;;;;;;5058632;28;20507;-73
2023/07/02 10:58:22;;;;;;;1999.90;999.90;;;10.10;99.90;;;;;;5064223;28;20036;-73
2023/07/02 11:00:51;;;;;;;1999.90;999.90;;;10.00;99.90;;;;;;5057920;28;20106;-74
2023/07/02 11:03:23;;;;;;;1999.90;999.90;;;10.00;99.90;;;;;;5050435;28;20052;-73
2023/07/02 11:05:51;;;;;;;1999.90;999.90;;;10.00;99.90;;;;;;5051394;28;20037;-72
2023/07/02 11:08:24;;;;;;;1999.90;999.90;;;10.00;99.90;;;;;;5052353;28;20522;-73
2023/07/02 11:11:03;;;;;;;1999.90;999.90;;;10.00;99.90;;;;;;5053214;28;20495;-72
2023/07/02 11:13:30;;;;;;;1999.90;999.90;;;9.90;99.90;;;;;;5052771;28;20025;-73
2023/07/02 11:15:58;;;;;;;1999.90;999.90;;;9.90;99.90;;;;;;5051879;28;20166;-71
2023/07/02 11:18:31;;;;;;;1999.90;999.90;;;9.90;99.90;;;;;;5055084;28;20028;-70
2023/07/02 11:21:09;;;;;;;1999.90;999.90;;;9.80;99.90;;;;;;5052225;28;20550;-71
2023/07/02 11:23:37;;;;;;;1999.90;999.90;;;9.80;99.90;;;;;;5051107;28;20029;-73
2023/07/02 11:26:04;;;;;;;1999.90;999.90;;;9.80;99.90;;;;;;5053645;28;20041;-72
2023/07/02 11:28:34;;;;;;;1999.90;999.90;;;9.80;99.90;;;;;;5063927;28;20106;-73
2023/07/02 11:31:03;;;;;;;1999.90;999.90;;;9.70;99.90;;;;;;5052326;28;20387;-73
2023/07/02 11:33:41;;;;;;;1999.90;999.90;;;9.70;99.90;;;;;;5055580;28;20048;-73
2023/07/02 11:36:20;;;;;;;1999.90;999.90;;;9.70;99.90;;;;;;5059351;28;20024;-72
2023/07/02 11:38:47;;;;;;;1999.90;999.90;;;9.70;99.90;;;;;;5056724;28;20028;-72
2023/07/02 11:41:15;;;;;;;1999.90;999.90;;;9.60;99.90;;;;;;5055478;28;20088;-74
2023/07/02 11:43:42;;;;;;;1999.90;999.90;;;9.70;99.90;;;;;;5055130;28;20443;-72
2023/07/02 11:46:10;;;;;;;1999.90;999.90;;;9.60;99.90;;;;;;5055898;28;20087;-72
2023/07/02 11:48:37;;;;;;;1999.90;999.90;;;9.60;99.90;;;;;;5059557;28;20017;-72
2023/07/02 11:51:04;;;;;;;1999.90;999.90;;;9.50;99.90;;;;;;5057623;28;20037;-70
2023/07/02 11:53:32;;;;;;;1999.90;999.90;;;9.50;99.90;;;;;;5057760;28;20524;-72
2023/07/02 11:55:59;;;;;;;1999.90;999.90;;;9.40;99.90;;;;;;5062762;28;20025;-70
2023/07/02 11:58:26;;;;;;;1999.90;999.90;;;9.40;99.90;;;;;;5055050;28;20028;-73
2023/07/02 12:00:54;;;;;;;1999.90;999.90;;;9.40;99.90;;;;;;5055532;28;20491;-73
2023/07/02 12:03:21;;;;;;;1999.90;999.90;;;9.30;99.90;;;;;;5058496;28;20083;-70
2023/07/02 12:05:48;;;;;;;1999.90;999.90;;;9.30;99.90;;;;;;5052905;28;20369;-71